sensor_id;sensor_type;location;lat;lon;timestamp;P1;durP1;ratioP1;P2;durP2;ratioP2
38312;SDS011;24114;52.260;6.714;2023-05-09T12:59:59;18.63;;;16.87;;
38312;SDS011;24114;52.260;6.714;2023-05-09T13:02:27;19.05;;;17.15;;
38312;SDS011;24114;52.260;6.714;2023-05-09T13:05:07;19.02;;;17.23;;
38312;SDS011;24114;52.260;6.714;2023-05-09T13:07:39;18.10;;;16.30;;
38312;SDS011;24114;52.260;6.714;2023-05-09T13:10:10;22.70;;;17.27;;
38312;SDS011;24114;52.260;6.714;2023-05-09T13:12:39;19.27;;;17.45;;
38312;SDS011;24114;52.260;6.714;2023-05-09T13:15:11;19.40;;;17.27;;
38312;SDS011;24114;52.260;6.714;2023-05-09T13:17:39;19.13;;;17.23;;
38312;SDS011;24114;52.260;6.714;2023-05-09T13:20:07;19.43;;;17.50;;
38312;SDS011;24114;52.260;6.714;2023-05-09T13:22:36;19.27;;;17.48;;
38312;SDS011;24114;52.260;6.714;2023-05-09T13:25:04;18.43;;;16.57;;
38312;SDS011;24114;52.260;6.714;2023-05-09T13:27:32;17.67;;;16.02;;
38312;SDS011;24114;52.260;6.714;2023-05-09T13:30:00;18.15;;;16.45;;
38312;SDS011;24114;52.260;6.714;2023-05-09T13:32:30;17.92;;;16.23;;
38312;SDS011;24114;52.260;6.714;2023-05-09T13:34:58;18.83;;;17.03;;
38312;SDS011;24114;52.260;6.714;2023-05-09T13:37:25;18.13;;;16.42;;
38312;SDS011;24114;52.260;6.714;2023-05-09T13:39:53;17.73;;;16.02;;
38312;SDS011;24114;52.260;6.714;2023-05-09T13:42:21;17.53;;;15.83;;
38312;SDS011;24114;52.260;6.714;2023-05-09T13:44:49;17.60;;;15.80;;
38312;SDS011;24114;52.260;6.714;2023-05-09T13:47:17;16.77;;;15.20;;
38312;SDS011;24114;52.260;6.714;2023-05-09T13:49:46;17.25;;;15.30;;
38312;SDS011;24114;52.260;6.714;2023-05-09T15:18:31;8.73;;;7.97;;
38312;SDS011;24114;52.260;6.714;2023-05-09T15:20:59;9.57;;;8.65;;
38312;SDS011;24114;52.260;6.714;2023-05-09T15:23:27;10.18;;;8.65;;
38312;SDS011;24114;52.260;6.714;2023-05-09T15:25:55;10.57;;;9.65;;
38312;SDS011;24114;52.260;6.714;2023-05-09T15:28:22;10.07;;;8.93;;
38312;SDS011;24114;52.260;6.714;2023-05-09T15:30:50;7.80;;;7.10;;
38312;SDS011;24114;52.260;6.714;2023-05-09T15:33:18;7.28;;;6.68;;
38312;SDS011;24114;52.260;6.714;2023-05-09T15:35:47;5.28;;;4.88;;
38312;SDS011;24114;52.260;6.714;2023-05-09T15:38:15;5.13;;;4.72;;
38312;SDS011;24114;52.260;6.714;2023-05-09T15:40:43;5.53;;;5.13;;
38312;SDS011;24114;52.260;6.714;2023-05-09T15:43:10;4.13;;;3.83;;
38312;SDS011;24114;52.260;6.714;2023-05-09T15:45:38;4.63;;;4.22;;
38312;SDS011;24114;52.260;6.714;2023-05-09T15:48:10;4.90;;;4.60;;
38312;SDS011;24114;52.260;6.714;2023-05-09T15:50:38;5.05;;;4.65;;
38312;SDS011;24114;52.260;6.714;2023-05-09T15:53:08;5.03;;;4.63;;
38312;SDS011;24114;52.260;6.714;2023-05-09T15:55:36;4.80;;;4.40;;
38312;SDS011;24114;52.260;6.714;2023-05-09T15:58:04;5.53;;;5.10;;
38312;SDS011;24114;52.260;6.714;2023-05-09T16:00:33;6.15;;;5.65;;
38312;SDS011;24114;52.260;6.714;2023-05-09T16:03:01;5.80;;;5.30;;
38312;SDS011;24114;52.260;6.714;2023-05-09T16:05:29;6.07;;;5.57;;
38312;SDS011;24114;52.260;6.714;2023-05-09T16:07:56;5.95;;;5.47;;
38312;SDS011;24114;52.260;6.714;2023-05-09T16:10:25;5.97;;;5.47;;
38312;SDS011;24114;52.260;6.714;2023-05-09T16:12:53;5.85;;;5.35;;
38312;SDS011;24114;52.260;6.714;2023-05-09T16:15:21;5.43;;;5.03;;
38312;SDS011;24114;52.260;6.714;2023-05-09T16:17:49;5.97;;;5.47;;
38312;SDS011;24114;52.260;6.714;2023-05-09T16:20:16;6.80;;;5.88;;
38312;SDS011;24114;52.260;6.714;2023-05-09T16:22:44;7.00;;;6.35;;
38312;SDS011;24114;52.260;6.714;2023-05-09T16:25:12;5.35;;;4.95;;
38312;SDS011;24114;52.260;6.714;2023-05-09T16:27:41;5.00;;;4.65;;
38312;SDS011;24114;52.260;6.714;2023-05-09T16:30:09;4.68;;;4.35;;
38312;SDS011;24114;52.260;6.714;2023-05-09T16:32:38;4.72;;;4.32;;
38312;SDS011;24114;52.260;6.714;2023-05-09T16:35:06;4.47;;;4.07;;
38312;SDS011;24114;52.260;6.714;2023-05-09T16:37:34;4.10;;;3.80;;
38312;SDS011;24114;52.260;6.714;2023-05-09T16:40:02;4.47;;;4.18;;
38312;SDS011;24114;52.260;6.714;2023-05-09T16:42:30;3.55;;;3.35;;
38312;SDS011;24114;52.260;6.714;2023-05-09T16:45:00;2.60;;;2.38;;
38312;SDS011;24114;52.260;6.714;2023-05-09T16:47:27;2.83;;;2.63;;
38312;SDS011;24114;52.260;6.714;2023-05-09T16:49:55;1.75;;;1.65;;
38312;SDS011;24114;52.260;6.714;2023-05-09T16:52:22;1.90;;;1.73;;
38312;SDS011;24114;52.260;6.714;2023-05-09T16:54:50;3.22;;;1.73;;
38312;SDS011;24114;52.260;6.714;2023-05-09T16:57:19;1.92;;;1.60;;
38312;SDS011;24114;52.260;6.714;2023-05-09T16:59:47;1.63;;;1.52;;
38312;SDS011;24114;52.260;6.714;2023-05-09T17:02:16;2.20;;;1.88;;
38312;SDS011;24114;52.260;6.714;2023-05-09T17:04:44;1.58;;;1.48;;
38312;SDS011;24114;52.260;6.714;2023-05-09T17:07:11;1.85;;;1.75;;
38312;SDS011;24114;52.260;6.714;2023-05-09T17:09:40;1.60;;;1.50;;
38312;SDS011;24114;52.260;6.714;2023-05-09T17:12:08;1.80;;;1.70;;
38312;SDS011;24114;52.260;6.714;2023-05-09T17:14:41;2.50;;;2.30;;
38312;SDS011;24114;52.260;6.714;2023-05-09T17:17:09;2.53;;;1.75;;
38312;SDS011;24114;52.260;6.714;2023-05-09T17:19:39;2.08;;;1.98;;
38312;SDS011;24114;52.260;6.714;2023-05-09T17:22:08;2.20;;;2.00;;
38312;SDS011;24114;52.260;6.714;2023-05-09T17:24:36;2.22;;;2.13;;
38312;SDS011;24114;52.260;6.714;2023-05-09T17:27:03;2.45;;;2.25;;
38312;SDS011;24114;52.260;6.714;2023-05-09T17:29:31;2.80;;;2.58;;
38312;SDS011;24114;52.260;6.714;2023-05-09T17:31:59;2.90;;;2.63;;
38312;SDS011;24114;52.260;6.714;2023-05-09T17:34:27;2.78;;;2.58;;
38312;SDS011;24114;52.260;6.714;2023-05-09T17:36:56;2.67;;;2.47;;
38312;SDS011;24114;52.260;6.714;2023-05-09T17:39:26;3.30;;;3.00;;
38312;SDS011;24114;52.260;6.714;2023-05-09T17:41:53;3.05;;;2.85;;
38312;SDS011;24114;52.260;6.714;2023-05-09T17:44:21;4.10;;;3.80;;
38312;SDS011;24114;52.260;6.714;2023-05-09T17:46:49;3.25;;;3.05;;
38312;SDS011;24114;52.260;6.714;2023-05-09T17:49:17;3.35;;;3.13;;
38312;SDS011;24114;52.260;6.714;2023-05-09T17:51:44;3.35;;;3.05;;
38312;SDS011;24114;52.260;6.714;2023-05-09T17:54:13;5.00;;;4.65;;
38312;SDS011;24114;52.260;6.714;2023-05-09T17:56:44;4.15;;;3.85;;
38312;SDS011;24114;52.260;6.714;2023-05-09T17:59:12;5.95;;;5.25;;
38312;SDS011;24114;52.260;6.714;2023-05-09T18:01:40;3.35;;;3.15;;
38312;SDS011;24114;52.260;6.714;2023-05-09T18:04:07;3.67;;;3.42;;
38312;SDS011;24114;52.260;6.714;2023-05-09T18:06:35;4.00;;;3.70;;
38312;SDS011;24114;52.260;6.714;2023-05-09T18:09:03;3.60;;;3.30;;
38312;SDS011;24114;52.260;6.714;2023-05-09T18:11:32;3.50;;;3.20;;
38312;SDS011;24114;52.260;6.714;2023-05-09T18:14:00;3.78;;;3.47;;
38312;SDS011;24114;52.260;6.714;2023-05-09T18:16:28;4.43;;;4.07;;
38312;SDS011;24114;52.260;6.714;2023-05-09T18:18:56;4.50;;;4.20;;
38312;SDS011;24114;52.260;6.714;2023-05-09T18:21:25;4.80;;;4.40;;
38312;SDS011;24114;52.260;6.714;2023-05-09T18:23:53;4.60;;;4.20;;
38312;SDS011;24114;52.260;6.714;2023-05-09T18:26:21;4.88;;;3.92;;
38312;SDS011;24114;52.260;6.714;2023-05-09T18:28:50;4.22;;;3.92;;
38312;SDS011;24114;52.260;6.714;2023-05-09T18:31:18;3.42;;;3.22;;
38312;SDS011;24114;52.260;6.714;2023-05-09T18:33:45;3.47;;;3.22;;
38312;SDS011;24114;52.260;6.714;2023-05-09T18:36:13;3.40;;;3.20;;
38312;SDS011;24114;52.260;6.714;2023-05-09T18:38:41;4.10;;;3.53;;
38312;SDS011;24114;52.260;6.714;2023-05-09T18:41:10;3.88;;;3.55;;
38312;SDS011;24114;52.260;6.714;2023-05-09T18:43:38;4.10;;;3.80;;
38312;SDS011;24114;52.260;6.714;2023-05-09T18:46:12;5.75;;;4.45;;
38312;SDS011;24114;52.260;6.714;2023-05-09T18:48:42;4.30;;;4.00;;
38312;SDS011;24114;52.260;6.714;2023-05-09T18:51:10;4.20;;;3.90;;
38312;SDS011;24114;52.260;6.714;2023-05-09T18:53:38;4.40;;;4.00;;
38312;SDS011;24114;52.260;6.714;2023-05-09T18:56:06;4.43;;;3.90;;
38312;SDS011;24114;52.260;6.714;2023-05-09T18:58:34;4.47;;;4.07;;
38312;SDS011;24114;52.260;6.714;2023-05-09T19:01:02;5.47;;;4.40;;
38312;SDS011;24114;52.260;6.714;2023-05-09T19:03:31;3.97;;;3.67;;
38312;SDS011;24114;52.260;6.714;2023-05-09T19:05:59;4.38;;;3.97;;
38312;SDS011;24114;52.260;6.714;2023-05-09T19:08:27;5.18;;;4.78;;
38312;SDS011;24114;52.260;6.714;2023-05-09T19:10:55;4.65;;;4.35;;
38312;SDS011;24114;52.260;6.714;2023-05-09T19:13:23;4.38;;;4.07;;
38312;SDS011;24114;52.260;6.714;2023-05-09T19:15:50;5.18;;;4.78;;
38312;SDS011;24114;52.260;6.714;2023-05-09T19:18:18;4.78;;;4.38;;
38312;SDS011;24114;52.260;6.714;2023-05-09T19:20:47;4.78;;;4.43;;
38312;SDS011;24114;52.260;6.714;2023-05-09T19:23:15;4.28;;;3.97;;
38312;SDS011;24114;52.260;6.714;2023-05-09T19:25:42;5.38;;;4.97;;
38312;SDS011;24114;52.260;6.714;2023-05-09T19:28:10;5.97;;;4.97;;
38312;SDS011;24114;52.260;6.714;2023-05-09T19:30:39;4.90;;;4.50;;
38312;SDS011;24114;52.260;6.714;2023-05-09T19:33:07;5.57;;;4.97;;
38312;SDS011;24114;52.260;6.714;2023-05-09T19:35:35;5.00;;;4.60;;
38312;SDS011;24114;52.260;6.714;2023-05-09T19:38:04;5.80;;;5.38;;
38312;SDS011;24114;52.260;6.714;2023-05-09T19:40:32;5.30;;;4.90;;
38312;SDS011;24114;52.260;6.714;2023-05-09T19:43:00;5.35;;;4.95;;
38312;SDS011;24114;52.260;6.714;2023-05-09T19:45:28;5.88;;;5.38;;
38312;SDS011;24114;52.260;6.714;2023-05-09T19:47:56;6.45;;;5.53;;
38312;SDS011;24114;52.260;6.714;2023-05-09T19:50:24;6.40;;;5.88;;
38312;SDS011;24114;52.260;6.714;2023-05-09T19:52:51;6.60;;;6.00;;
38312;SDS011;24114;52.260;6.714;2023-05-09T19:55:20;7.38;;;6.50;;
38312;SDS011;24114;52.260;6.714;2023-05-09T19:57:48;7.00;;;6.40;;
38312;SDS011;24114;52.260;6.714;2023-05-09T20:00:16;6.93;;;5.85;;
38312;SDS011;24114;52.260;6.714;2023-05-09T20:02:44;7.35;;;6.65;;
38312;SDS011;24114;52.260;6.714;2023-05-09T20:05:12;7.20;;;6.30;;
38312;SDS011;24114;52.260;6.714;2023-05-09T20:07:40;7.43;;;6.00;;
38312;SDS011;24114;52.260;6.714;2023-05-09T20:10:08;7.25;;;6.60;;
38312;SDS011;24114;52.260;6.714;2023-05-09T20:12:39;6.97;;;6.40;;
38312;SDS011;24114;52.260;6.714;2023-05-09T20:15:07;6.68;;;6.07;;
38312;SDS011;24114;52.260;6.714;2023-05-09T20:17:35;6.57;;;5.97;;
38312;SDS011;24114;52.260;6.714;2023-05-09T20:20:04;8.68;;;7.30;;
38312;SDS011;24114;52.260;6.714;2023-05-09T20:22:32;8.05;;;7.25;;
38312;SDS011;24114;52.260;6.714;2023-05-09T20:25:00;6.93;;;6.32;;
38312;SDS011;24114;52.260;6.714;2023-05-09T20:27:28;7.45;;;6.78;;
38312;SDS011;24114;52.260;6.714;2023-05-09T20:29:57;7.40;;;6.72;;
38312;SDS011;24114;52.260;6.714;2023-05-09T20:32:25;7.03;;;6.43;;
38312;SDS011;24114;52.260;6.714;2023-05-09T20:34:53;7.35;;;6.68;;
38312;SDS011;24114;52.260;6.714;2023-05-09T20:37:21;7.60;;;6.90;;
38312;SDS011;24114;52.260;6.714;2023-05-09T20:39:49;6.90;;;6.30;;
38312;SDS011;24114;52.260;6.714;2023-05-09T20:42:16;7.72;;;7.03;;
38312;SDS011;24114;52.260;6.714;2023-05-09T20:44:44;7.28;;;6.68;;
38312;SDS011;24114;52.260;6.714;2023-05-09T20:47:15;7.43;;;6.82;;
38312;SDS011;24114;52.260;6.714;2023-05-09T20:49:43;7.10;;;6.50;;
38312;SDS011;24114;52.260;6.714;2023-05-09T20:52:11;7.85;;;7.15;;
38312;SDS011;24114;52.260;6.714;2023-05-09T20:54:39;7.30;;;6.70;;
38312;SDS011;24114;52.260;6.714;2023-05-09T20:57:06;7.35;;;6.75;;
38312;SDS011;24114;52.260;6.714;2023-05-09T20:59:34;9.18;;;7.22;;
38312;SDS011;24114;52.260;6.714;2023-05-09T21:02:02;7.63;;;6.93;;
38312;SDS011;24114;52.260;6.714;2023-05-09T21:04:31;7.43;;;6.72;;
38312;SDS011;24114;52.260;6.714;2023-05-09T21:06:59;7.65;;;6.95;;
38312;SDS011;24114;52.260;6.714;2023-05-09T21:09:27;8.00;;;7.30;;
38312;SDS011;24114;52.260;6.714;2023-05-09T21:11:55;8.25;;;7.45;;
38312;SDS011;24114;52.260;6.714;2023-05-09T21:14:22;7.72;;;7.10;;
38312;SDS011;24114;52.260;6.714;2023-05-09T21:16:50;8.60;;;7.80;;
38312;SDS011;24114;52.260;6.714;2023-05-09T21:19:20;8.35;;;7.65;;
38312;SDS011;24114;52.260;6.714;2023-05-09T21:21:49;7.78;;;6.97;;
38312;SDS011;24114;52.260;6.714;2023-05-09T21:24:17;8.43;;;7.63;;
38312;SDS011;24114;52.260;6.714;2023-05-09T21:26:44;9.63;;;8.45;;
38312;SDS011;24114;52.260;6.714;2023-05-09T21:29:13;7.97;;;7.18;;
38312;SDS011;24114;52.260;6.714;2023-05-09T21:31:40;9.05;;;8.25;;
38312;SDS011;24114;52.260;6.714;2023-05-09T21:34:08;14.23;;;8.25;;
38312;SDS011;24114;52.260;6.714;2023-05-09T21:36:36;8.52;;;7.80;;
38312;SDS011;24114;52.260;6.714;2023-05-09T21:39:05;8.15;;;7.45;;
38312;SDS011;24114;52.260;6.714;2023-05-09T21:41:35;7.97;;;7.20;;
38312;SDS011;24114;52.260;6.714;2023-05-09T21:44:03;8.10;;;7.30;;
38312;SDS011;24114;52.260;6.714;2023-05-09T21:46:32;8.98;;;8.18;;
38312;SDS011;24114;52.260;6.714;2023-05-09T21:49:01;8.88;;;8.05;;
38312;SDS011;24114;52.260;6.714;2023-05-09T21:51:29;8.07;;;7.28;;
38312;SDS011;24114;52.260;6.714;2023-05-09T21:53:58;8.40;;;7.60;;
38312;SDS011;24114;52.260;6.714;2023-05-09T21:56:27;9.13;;;8.32;;
38312;SDS011;24114;52.260;6.714;2023-05-09T21:58:55;9.10;;;8.30;;
38312;SDS011;24114;52.260;6.714;2023-05-09T22:01:23;8.98;;;8.18;;
38312;SDS011;24114;52.260;6.714;2023-05-09T22:03:50;9.20;;;8.40;;
38312;SDS011;24114;52.260;6.714;2023-05-09T22:06:18;9.20;;;8.30;;
38312;SDS011;24114;52.260;6.714;2023-05-09T22:08:46;12.73;;;8.95;;
38312;SDS011;24114;52.260;6.714;2023-05-09T22:11:16;9.38;;;8.48;;
38312;SDS011;24114;52.260;6.714;2023-05-09T22:13:45;10.43;;;8.40;;
38312;SDS011;24114;52.260;6.714;2023-05-09T22:16:13;10.48;;;7.82;;
38312;SDS011;24114;52.260;6.714;2023-05-09T22:18:41;9.38;;;8.38;;
38312;SDS011;24114;52.260;6.714;2023-05-09T22:21:08;8.35;;;7.63;;
38312;SDS011;24114;52.260;6.714;2023-05-09T22:23:36;8.88;;;7.97;;
38312;SDS011;24114;52.260;6.714;2023-05-09T22:26:04;9.70;;;8.68;;
38312;SDS011;24114;52.260;6.714;2023-05-09T22:28:31;9.48;;;8.52;;
38312;SDS011;24114;52.260;6.714;2023-05-09T22:31:00;10.20;;;9.07;;
38312;SDS011;24114;52.260;6.714;2023-05-09T22:33:28;11.20;;;9.48;;
38312;SDS011;24114;52.260;6.714;2023-05-09T22:35:56;9.85;;;8.85;;
38312;SDS011;24114;52.260;6.714;2023-05-09T22:38:23;9.38;;;8.48;;
38312;SDS011;24114;52.260;6.714;2023-05-09T22:40:51;9.07;;;8.15;;
38312;SDS011;24114;52.260;6.714;2023-05-09T22:43:19;9.77;;;8.75;;
38312;SDS011;24114;52.260;6.714;2023-05-09T22:45:46;10.00;;;8.98;;
38312;SDS011;24114;52.260;6.714;2023-05-09T22:48:15;12.98;;;8.82;;
38312;SDS011;24114;52.260;6.714;2023-05-09T22:50:43;10.27;;;8.95;;
38312;SDS011;24114;52.260;6.714;2023-05-09T22:53:11;10.32;;;9.23;;
38312;SDS011;24114;52.260;6.714;2023-05-09T22:55:38;13.98;;;9.98;;
38312;SDS011;24114;52.260;6.714;2023-05-09T22:58:06;11.20;;;9.20;;
38312;SDS011;24114;52.260;6.714;2023-05-09T23:00:34;10.68;;;8.88;;
38312;SDS011;24114;52.260;6.714;2023-05-09T23:03:02;11.13;;;9.88;;
38312;SDS011;24114;52.260;6.714;2023-05-09T23:05:31;13.45;;;10.57;;
38312;SDS011;24114;52.260;6.714;2023-05-09T23:07:59;15.23;;;11.45;;
38312;SDS011;24114;52.260;6.714;2023-05-09T23:10:27;15.70;;;11.65;;
38312;SDS011;24114;52.260;6.714;2023-05-09T23:12:54;15.02;;;11.23;;
38312;SDS011;24114;52.260;6.714;2023-05-09T23:15:22;13.98;;;11.68;;
38312;SDS011;24114;52.260;6.714;2023-05-09T23:17:50;15.55;;;11.85;;
38312;SDS011;24114;52.260;6.714;2023-05-09T23:20:18;16.30;;;11.40;;
38312;SDS011;24114;52.260;6.714;2023-05-09T23:22:47;16.92;;;12.32;;
38312;SDS011;24114;52.260;6.714;2023-05-09T23:25:15;15.90;;;12.25;;
38312;SDS011;24114;52.260;6.714;2023-05-09T23:27:42;15.80;;;12.10;;
38312;SDS011;24114;52.260;6.714;2023-05-09T23:30:12;15.82;;;12.13;;
